createdAt,value
2017-10-03T00:01:57.141Z,88.30
2017-10-03T00:04:24.755Z,88.60
2017-10-03T00:06:52.428Z,88.70
2017-10-03T00:09:20.064Z,88.90
2017-10-03T00:11:47.669Z,89.30
2017-10-03T00:14:15.321Z,89.20
2017-10-03T00:16:42.937Z,89.30
2017-10-03T00:19:10.670Z,89.80
2017-10-03T00:21:38.316Z,90.00
2017-10-03T00:24:05.989Z,89.60
2017-10-03T00:26:33.553Z,89.90
2017-10-03T00:29:01.269Z,89.90
2017-10-03T00:31:28.813Z,90.00
2017-10-03T00:33:56.374Z,90.00
2017-10-03T00:36:23.956Z,90.10
2017-10-03T00:38:51.567Z,90.20
2017-10-03T00:41:19.141Z,90.10
2017-10-03T00:43:46.700Z,90.20
2017-10-03T00:46:14.321Z,90.20
2017-10-03T00:48:41.906Z,90.20
2017-10-03T00:51:09.501Z,90.20
2017-10-03T00:53:37.103Z,90.30
2017-10-03T00:56:04.653Z,90.10
2017-10-03T00:58:32.217Z,90.10
2017-10-03T01:01:00.664Z,90.10
2017-10-03T01:03:28.237Z,90.10
2017-10-03T01:05:55.934Z,90.20
2017-10-03T01:08:23.654Z,90.10
2017-10-03T01:10:51.267Z,90.20
2017-10-03T01:13:19.614Z,90.50
2017-10-03T01:15:47.125Z,90.50
2017-10-03T01:18:14.675Z,90.40
2017-10-03T01:20:42.182Z,90.60
2017-10-03T01:23:09.742Z,90.60
2017-10-03T01:25:37.350Z,90.60
2017-10-03T01:28:05.764Z,90.60
2017-10-03T01:30:33.279Z,90.60
2017-10-03T01:33:01.944Z,90.70
2017-10-03T01:35:30.333Z,90.70
2017-10-03T01:38:06.081Z,90.70
2017-10-03T01:40:33.755Z,90.70
2017-10-03T01:43:01.423Z,90.80
2017-10-03T01:45:29.790Z,90.50
2017-10-03T01:47:57.446Z,90.50
2017-10-03T01:50:25.051Z,90.30
2017-10-03T01:52:52.626Z,90.30
2017-10-03T01:55:20.286Z,90.10
2017-10-03T01:57:47.961Z,90.10
2017-10-03T02:00:16.335Z,90.40
2017-10-03T02:02:43.839Z,90.40
2017-10-03T02:05:11.379Z,90.20
2017-10-03T02:07:38.888Z,90.10
2017-10-03T02:10:06.443Z,90.00
2017-10-03T02:12:33.956Z,90.10
2017-10-03T02:15:01.877Z,89.80
2017-10-03T02:17:29.390Z,89.70
2017-10-03T02:19:56.930Z,90.00
2017-10-03T02:22:24.466Z,90.10
2017-10-03T02:24:51.975Z,90.10
2017-10-03T02:27:19.508Z,90.10
2017-10-03T02:29:47.010Z,90.10
2017-10-03T02:32:14.567Z,90.00
2017-10-03T02:34:42.071Z,89.80
2017-10-03T02:37:09.615Z,90.20
2017-10-03T02:39:37.121Z,90.20
2017-10-03T02:42:05.445Z,90.50
2017-10-03T02:44:32.966Z,90.20
2017-10-03T02:47:00.503Z,90.20
2017-10-03T02:49:28.015Z,90.20
2017-10-03T02:51:55.658Z,90.10
2017-10-03T02:54:23.173Z,90.00
2017-10-03T02:56:50.675Z,90.10
2017-10-03T02:59:18.206Z,90.00
2017-10-03T03:01:45.726Z,89.90
2017-10-03T03:04:13.262Z,90.00
2017-10-03T03:06:40.778Z,90.00
2017-10-03T03:09:08.327Z,90.00
2017-10-03T03:11:35.986Z,90.00
2017-10-03T03:14:04.289Z,90.00
2017-10-03T03:16:31.795Z,90.00
2017-10-03T03:18:59.334Z,90.00
2017-10-03T03:21:26.835Z,89.80
2017-10-03T03:23:54.778Z,90.00
2017-10-03T03:26:23.237Z,90.20
2017-10-03T03:28:50.877Z,90.20
2017-10-03T03:31:18.454Z,90.10
2017-10-03T03:33:46.482Z,90.00
2017-10-03T03:36:14.029Z,90.00
2017-10-03T03:38:41.530Z,90.30
2017-10-03T03:41:09.070Z,90.20
2017-10-03T03:43:36.619Z,90.20
2017-10-03T03:46:04.158Z,90.40
2017-10-03T03:48:32.435Z,90.60
2017-10-03T03:50:59.968Z,90.60
2017-10-03T03:53:27.491Z,90.50
2017-10-03T03:55:55.786Z,90.40
2017-10-03T03:58:24.062Z,90.50
2017-10-03T04:00:52.479Z,90.30
2017-10-03T04:03:19.974Z,90.30
2017-10-03T04:05:47.474Z,90.50
2017-10-03T04:08:15.011Z,90.50
2017-10-03T04:10:42.510Z,90.40
2017-10-03T04:13:10.052Z,90.30
2017-10-03T04:15:37.554Z,90.30
2017-10-03T04:18:05.096Z,90.60
2017-10-03T04:20:32.624Z,90.70
2017-10-03T04:23:00.170Z,90.80
2017-10-03T04:25:27.691Z,90.70
2017-10-03T04:27:55.238Z,90.60
2017-10-03T04:30:22.744Z,90.70
2017-10-03T04:32:50.282Z,90.70
2017-10-03T04:35:18.574Z,90.70
2017-10-03T04:37:47.091Z,90.70
2017-10-03T04:40:14.604Z,90.70
2017-10-03T04:42:42.110Z,90.70
2017-10-03T04:45:10.418Z,90.80
2017-10-03T04:47:37.921Z,90.80
2017-10-03T04:50:05.478Z,90.70
2017-10-03T04:52:32.981Z,90.80
2017-10-03T04:55:00.518Z,90.60
2017-10-03T04:57:28.028Z,90.60
2017-10-03T04:59:55.567Z,90.50
2017-10-03T05:02:23.070Z,90.50
2017-10-03T05:04:50.855Z,90.40
2017-10-03T05:07:18.367Z,90.50
2017-10-03T05:09:46.629Z,90.40
2017-10-03T05:12:14.138Z,90.50
2017-10-03T05:14:41.790Z,90.50
2017-10-03T05:17:10.104Z,90.50
2017-10-03T05:19:37.627Z,90.50
2017-10-03T05:22:05.207Z,90.50
2017-10-03T05:24:32.718Z,90.50
2017-10-03T05:27:00.301Z,90.40
2017-10-03T05:29:27.829Z,90.40
2017-10-03T05:31:55.467Z,90.40
2017-10-03T05:34:23.061Z,90.60
2017-10-03T05:36:51.447Z,90.50
2017-10-03T05:39:18.958Z,90.40
2017-10-03T05:41:47.234Z,90.60
2017-10-03T05:44:15.542Z,90.60
2017-10-03T05:46:43.062Z,90.60
2017-10-03T05:49:10.618Z,90.70
2017-10-03T05:51:38.128Z,90.80
2017-10-03T05:54:05.676Z,90.90
2017-10-03T05:56:33.184Z,91.00
2017-10-03T05:59:00.741Z,90.90
2017-10-03T06:01:28.262Z,91.10
2017-10-03T06:03:55.826Z,91.10
2017-10-03T06:06:23.339Z,91.10
2017-10-03T06:08:50.899Z,91.00
2017-10-03T06:11:18.409Z,91.10
2017-10-03T06:13:45.955Z,91.10
2017-10-03T06:16:13.490Z,91.00
2017-10-03T06:18:41.011Z,90.80
2017-10-03T06:21:08.554Z,90.60
2017-10-03T06:23:36.159Z,90.50
2017-10-03T06:26:03.708Z,90.30
2017-10-03T06:28:31.232Z,90.20
2017-10-03T06:30:58.842Z,90.00
2017-10-03T06:33:26.430Z,89.80
2017-10-03T06:35:54.010Z,88.70
2017-10-03T06:38:21.519Z,88.80
2017-10-03T06:40:49.381Z,88.00
2017-10-03T06:43:16.883Z,87.90
2017-10-03T06:45:44.389Z,87.80
2017-10-03T06:48:11.938Z,86.90
2017-10-03T06:50:39.438Z,86.30
2017-10-03T06:53:07.048Z,85.30
2017-10-03T06:55:34.578Z,85.00
2017-10-03T06:58:02.126Z,84.30
2017-10-03T07:00:29.634Z,82.10
2017-10-03T07:02:59.503Z,76.90
2017-10-03T07:05:27.191Z,76.40
2017-10-03T07:07:54.829Z,77.10
2017-10-03T07:10:22.340Z,78.10
2017-10-03T07:12:49.850Z,77.70
2017-10-03T07:15:18.715Z,73.00
2017-10-03T07:17:46.262Z,68.20
2017-10-03T07:20:14.175Z,67.30
2017-10-03T07:22:43.102Z,64.80
2017-10-03T07:25:11.037Z,65.00
2017-10-03T07:27:38.597Z,68.00
2017-10-03T07:30:06.906Z,65.90
2017-10-03T07:32:35.176Z,68.50
2017-10-03T07:35:02.715Z,68.40
2017-10-03T07:37:30.219Z,71.80
2017-10-03T07:39:57.758Z,74.40
2017-10-03T07:42:25.279Z,76.30
2017-10-03T07:44:53.576Z,78.00
2017-10-03T07:47:21.083Z,77.80
2017-10-03T07:49:48.738Z,78.10
2017-10-03T07:52:16.742Z,75.00
2017-10-03T07:54:44.255Z,73.00
2017-10-03T07:57:12.610Z,74.50
2017-10-03T07:59:40.118Z,74.50
2017-10-03T08:02:07.661Z,75.00
2017-10-03T08:04:35.626Z,76.90
2017-10-03T08:07:03.169Z,76.10
2017-10-03T08:09:30.667Z,77.70
2017-10-03T08:11:58.402Z,78.00
2017-10-03T08:14:26.670Z,76.60
2017-10-03T08:16:54.324Z,76.60
2017-10-03T08:19:21.859Z,74.80
2017-10-03T08:21:49.363Z,76.00
2017-10-03T08:24:16.913Z,77.30
2017-10-03T08:26:44.448Z,77.10
2017-10-03T08:29:11.982Z,78.00
2017-10-03T08:31:39.486Z,77.00
2017-10-03T08:34:07.031Z,77.70
2017-10-03T08:36:34.537Z,77.40
2017-10-03T08:39:02.991Z,73.10
2017-10-03T08:41:30.491Z,73.00
2017-10-03T08:43:58.798Z,67.90
2017-10-03T08:46:26.375Z,67.10
2017-10-03T08:48:54.650Z,63.40
2017-10-03T08:51:22.951Z,65.60
2017-10-03T08:53:50.446Z,65.60
2017-10-03T08:56:17.982Z,67.80
2017-10-03T08:58:46.258Z,66.10
2017-10-03T09:01:13.795Z,66.10
2017-10-03T09:03:41.291Z,62.60
2017-10-03T09:06:08.984Z,60.80
2017-10-03T09:08:37.258Z,59.60
2017-10-03T09:11:04.764Z,59.00
2017-10-03T09:13:32.318Z,60.80
2017-10-03T09:15:59.819Z,61.90
2017-10-03T09:18:28.138Z,63.60
2017-10-03T09:20:55.646Z,63.50
2017-10-03T09:23:23.195Z,62.90
2017-10-03T09:25:50.690Z,61.80
2017-10-03T09:28:18.239Z,63.30
2017-10-03T09:30:45.755Z,59.40
2017-10-03T09:33:13.372Z,55.90
2017-10-03T09:35:40.995Z,55.10
2017-10-03T09:38:08.818Z,53.60
2017-10-03T09:40:37.160Z,53.30
2017-10-03T09:43:04.673Z,53.30
2017-10-03T09:45:32.245Z,55.40
2017-10-03T09:47:59.757Z,56.60
2017-10-03T09:50:27.291Z,59.20
2017-10-03T09:52:54.823Z,61.30
2017-10-03T09:55:22.570Z,60.50
2017-10-03T09:57:50.090Z,58.70
2017-10-03T10:00:18.413Z,55.00
2017-10-03T10:02:45.919Z,54.90
2017-10-03T10:05:13.508Z,54.30
2017-10-03T10:07:41.798Z,56.60
2017-10-03T10:10:09.578Z,56.60
2017-10-03T10:12:37.118Z,52.70
2017-10-03T10:15:04.636Z,51.80
2017-10-03T10:17:32.958Z,53.20
2017-10-03T10:20:00.492Z,53.10
2017-10-03T10:22:28.811Z,60.70
2017-10-03T10:24:56.318Z,60.70
2017-10-03T10:27:23.854Z,63.10
2017-10-03T10:29:51.365Z,64.60
2017-10-03T10:32:18.914Z,66.60
2017-10-03T10:34:46.418Z,68.20
2017-10-03T10:37:13.951Z,68.10
2017-10-03T10:39:41.559Z,67.70
2017-10-03T10:42:09.569Z,68.90
2017-10-03T10:44:37.842Z,60.60
2017-10-03T10:47:05.399Z,60.70
2017-10-03T10:49:32.942Z,57.10
2017-10-03T10:52:00.438Z,56.20
2017-10-03T10:54:28.019Z,56.50
2017-10-03T10:56:55.519Z,56.30
2017-10-03T10:59:23.833Z,59.20
2017-10-03T11:01:51.321Z,59.20
2017-10-03T11:04:18.831Z,59.30
2017-10-03T11:06:46.363Z,59.60
2017-10-03T11:09:13.869Z,59.60
2017-10-03T11:11:41.400Z,60.50
2017-10-03T11:14:08.902Z,59.10
2017-10-03T11:16:36.434Z,58.60
2017-10-03T11:19:03.934Z,58.40
2017-10-03T11:21:31.467Z,61.40
2017-10-03T11:24:10.798Z,63.70
2017-10-03T11:26:39.102Z,66.20
2017-10-03T11:29:06.632Z,66.20
2017-10-03T11:31:34.318Z,66.60
2017-10-03T11:34:01.832Z,66.50
2017-10-03T11:36:29.367Z,64.60
2017-10-03T11:38:56.914Z,63.20
2017-10-03T11:41:24.410Z,62.80
2017-10-03T11:43:52.017Z,62.50
2017-10-03T11:46:19.518Z,61.30
2017-10-03T11:48:47.049Z,58.90
2017-10-03T11:51:15.326Z,58.60
2017-10-03T11:53:43.625Z,58.80
2017-10-03T11:56:11.150Z,58.50
2017-10-03T11:58:39.078Z,58.70
2017-10-03T12:01:07.338Z,57.40
2017-10-03T12:03:34.846Z,57.30
2017-10-03T12:06:03.316Z,57.10
2017-10-03T12:08:30.823Z,58.10
2017-10-03T12:10:58.370Z,60.10
2017-10-03T12:13:25.898Z,64.20
2017-10-03T12:15:53.447Z,66.80
2017-10-03T12:18:21.076Z,66.00
2017-10-03T12:20:49.594Z,67.40
2017-10-03T12:23:17.876Z,68.20
2017-10-03T12:25:45.398Z,68.10
2017-10-03T12:28:13.180Z,67.40
2017-10-03T12:30:40.705Z,65.00
2017-10-03T12:33:09.378Z,65.30
2017-10-03T12:35:36.902Z,65.30
2017-10-03T12:38:04.418Z,63.50
2017-10-03T12:40:32.767Z,63.60
2017-10-03T12:43:00.282Z,63.50
2017-10-03T12:45:27.859Z,63.00
2017-10-03T12:47:55.417Z,64.60
2017-10-03T12:50:22.966Z,65.60
2017-10-03T12:52:50.564Z,65.40
2017-10-03T12:55:18.842Z,65.20
2017-10-03T12:57:47.267Z,62.90
2017-10-03T13:00:15.595Z,61.90
2017-10-03T13:02:43.134Z,61.90
2017-10-03T13:05:11.439Z,61.40
2017-10-03T13:07:39.050Z,61.40
2017-10-03T13:10:06.567Z,61.00
2017-10-03T13:12:34.891Z,59.80
2017-10-03T13:15:02.403Z,59.80
2017-10-03T13:17:29.963Z,58.40
2017-10-03T13:19:57.482Z,59.80
2017-10-03T13:22:25.075Z,57.90
2017-10-03T13:24:52.577Z,58.00
2017-10-03T13:27:20.234Z,56.30
2017-10-03T13:29:47.850Z,56.20
2017-10-03T13:32:15.392Z,56.50
2017-10-03T13:34:42.952Z,56.50
2017-10-03T13:37:10.466Z,56.70
2017-10-03T13:39:38.006Z,56.90
2017-10-03T13:42:05.548Z,57.70
2017-10-03T13:44:33.102Z,58.20
2017-10-03T13:47:01.448Z,59.00
2017-10-03T13:49:29.186Z,59.00
2017-10-03T13:51:56.710Z,60.00
2017-10-03T13:54:24.230Z,61.60
2017-10-03T13:56:51.927Z,62.40
2017-10-03T13:59:19.442Z,62.80
2017-10-03T14:01:46.986Z,62.90
2017-10-03T14:04:14.502Z,63.70
2017-10-03T14:06:42.867Z,61.60
2017-10-03T14:09:10.379Z,61.60
2017-10-03T14:11:38.730Z,60.00
2017-10-03T14:14:06.281Z,60.00
2017-10-03T14:16:34.042Z,60.10
2017-10-03T14:19:01.550Z,59.90
2017-10-03T14:21:29.063Z,59.30
2017-10-03T14:23:56.603Z,59.60
2017-10-03T14:26:24.108Z,61.00
2017-10-03T14:28:51.658Z,60.90
2017-10-03T14:31:19.940Z,62.00
2017-10-03T14:33:48.242Z,61.90
2017-10-03T14:36:16.510Z,62.20
2017-10-03T14:38:44.051Z,62.10
2017-10-03T14:41:11.562Z,61.60
2017-10-03T14:43:39.389Z,62.10
2017-10-03T14:46:06.890Z,62.50
2017-10-03T14:48:34.406Z,62.50
2017-10-03T14:51:01.951Z,62.70
2017-10-03T14:53:29.487Z,62.50
2017-10-03T14:55:57.186Z,63.00
2017-10-03T14:58:25.310Z,62.20
2017-10-03T15:00:52.884Z,62.20
2017-10-03T15:03:20.989Z,62.30
2017-10-03T15:05:48.555Z,61.30
2017-10-03T15:08:16.058Z,61.60
2017-10-03T15:10:44.606Z,60.80
2017-10-03T15:13:12.873Z,60.30
2017-10-03T15:15:40.365Z,60.30
2017-10-03T15:18:08.673Z,59.90
2017-10-03T15:20:36.185Z,59.90
2017-10-03T15:23:04.257Z,59.50
2017-10-03T15:25:32.466Z,58.70
2017-10-03T15:28:00.848Z,59.60
2017-10-03T15:30:28.505Z,59.60
2017-10-03T15:32:56.272Z,59.70
2017-10-03T15:35:23.886Z,60.10
2017-10-03T15:37:51.530Z,59.00
2017-10-03T15:40:19.097Z,59.10
2017-10-03T15:42:46.970Z,59.00
2017-10-03T15:45:14.544Z,59.20
2017-10-03T15:47:42.794Z,59.00
2017-10-03T15:50:11.216Z,58.70
2017-10-03T15:52:38.804Z,59.10
2017-10-03T15:55:06.632Z,59.80
2017-10-03T15:57:34.249Z,60.50
2017-10-03T16:00:02.595Z,60.60
2017-10-03T16:02:30.101Z,59.80
2017-10-03T16:04:58.028Z,61.10
2017-10-03T16:07:25.670Z,60.90
2017-10-03T16:09:53.322Z,61.00
2017-10-03T16:12:20.890Z,61.10
2017-10-03T16:14:48.399Z,61.00
2017-10-03T16:17:15.943Z,61.20
2017-10-03T16:19:43.450Z,60.30
2017-10-03T16:22:10.986Z,60.40
2017-10-03T16:24:38.719Z,59.30
2017-10-03T16:27:06.638Z,59.50
2017-10-03T16:29:35.530Z,59.70
2017-10-03T16:32:03.815Z,59.90
2017-10-03T16:34:31.398Z,59.80
2017-10-03T16:36:59.187Z,60.30
2017-10-03T16:39:26.773Z,60.60
2017-10-03T16:42:04.325Z,60.60
2017-10-03T16:44:32.684Z,61.00
2017-10-03T16:47:00.205Z,61.00
2017-10-03T16:49:27.759Z,61.40
2017-10-03T16:51:55.283Z,62.60
2017-10-03T16:54:22.939Z,61.80
2017-10-03T16:56:50.438Z,62.40
2017-10-03T16:59:17.946Z,63.00
2017-10-03T17:01:45.570Z,63.60
2017-10-03T17:04:13.088Z,64.10
2017-10-03T17:06:40.645Z,64.40
2017-10-03T17:09:08.156Z,65.40
2017-10-03T17:11:35.706Z,65.50
2017-10-03T17:14:03.208Z,66.00
2017-10-03T17:16:31.559Z,66.30
2017-10-03T17:18:59.066Z,66.20
2017-10-03T17:21:27.495Z,66.80
2017-10-03T17:23:55.089Z,66.80
2017-10-03T17:26:23.674Z,67.10
2017-10-03T17:28:51.224Z,67.60
2017-10-03T17:31:18.762Z,68.00
2017-10-03T17:33:46.493Z,68.10
2017-10-03T17:36:14.062Z,68.60
2017-10-03T17:38:43.612Z,68.90
2017-10-03T17:41:11.134Z,69.20
2017-10-03T17:43:38.812Z,69.50
2017-10-03T17:46:06.328Z,69.90
2017-10-03T17:48:33.887Z,70.60
2017-10-03T17:51:01.429Z,71.10
2017-10-03T17:53:29.317Z,71.70
2017-10-03T17:55:56.864Z,72.40
2017-10-03T17:58:24.394Z,72.60
2017-10-03T18:00:51.998Z,73.60
2017-10-03T18:03:19.503Z,73.10
2017-10-03T18:05:47.063Z,72.70
2017-10-03T18:08:14.574Z,72.60
2017-10-03T18:10:43.318Z,72.90
2017-10-03T18:13:11.707Z,72.90
2017-10-03T18:15:40.031Z,73.10
2017-10-03T18:18:07.550Z,73.10
2017-10-03T18:20:35.207Z,73.30
2017-10-03T18:23:02.757Z,73.60
2017-10-03T18:25:30.265Z,73.80
2017-10-03T18:27:57.858Z,74.20
2017-10-03T18:30:25.385Z,74.40
2017-10-03T18:32:52.949Z,74.60
2017-10-03T18:35:20.741Z,75.10
2017-10-03T18:37:48.367Z,75.60
2017-10-03T18:40:15.890Z,75.40
2017-10-03T18:42:43.585Z,75.30
2017-10-03T18:45:11.323Z,75.60
2017-10-03T18:47:39.030Z,75.70
2017-10-03T18:50:06.574Z,75.60
2017-10-03T18:52:34.094Z,75.80
2017-10-03T18:55:01.644Z,76.40
2017-10-03T18:57:29.631Z,76.70
2017-10-03T18:59:57.279Z,77.30
2017-10-03T19:02:24.851Z,77.80
2017-10-03T19:04:52.556Z,76.80
2017-10-03T19:07:20.087Z,76.70
2017-10-03T19:09:48.026Z,76.80
2017-10-03T19:12:15.579Z,77.40
2017-10-03T19:14:43.088Z,77.60
2017-10-03T19:17:10.668Z,77.90
2017-10-03T19:19:38.233Z,78.50
2017-10-03T19:22:06.050Z,78.20
2017-10-03T19:24:33.562Z,78.60
2017-10-03T19:27:01.861Z,79.30
2017-10-03T19:29:30.226Z,79.50
2017-10-03T19:31:57.757Z,79.50
2017-10-03T19:34:25.306Z,79.60
2017-10-03T19:36:53.164Z,79.80
2017-10-03T19:39:20.787Z,80.20
2017-10-03T19:41:48.362Z,80.10
2017-10-03T19:44:15.953Z,80.00
2017-10-03T19:46:43.482Z,80.30
2017-10-03T19:49:11.246Z,80.50
2017-10-03T19:51:38.786Z,80.90
2017-10-03T19:54:06.329Z,81.30
2017-10-03T19:56:33.991Z,81.40
2017-10-03T19:59:01.507Z,81.90
2017-10-03T20:01:29.066Z,81.90
2017-10-03T20:03:56.575Z,82.10
2017-10-03T20:06:24.131Z,82.80
2017-10-03T20:08:51.769Z,83.00
2017-10-03T20:11:19.479Z,83.30
2017-10-03T20:13:46.994Z,83.40
2017-10-03T20:16:14.519Z,83.80
2017-10-03T20:18:42.076Z,84.10
2017-10-03T20:21:09.582Z,84.00
2017-10-03T20:23:37.932Z,84.20
2017-10-03T20:26:05.469Z,84.20
2017-10-03T20:28:33.022Z,84.20
2017-10-03T20:31:01.299Z,85.50
2017-10-03T20:33:28.842Z,85.50
2017-10-03T20:35:56.348Z,85.70
2017-10-03T20:38:25.068Z,86.80
2017-10-03T20:40:52.594Z,86.10
2017-10-03T20:43:20.268Z,86.60
2017-10-03T20:45:48.623Z,86.80
2017-10-03T20:48:16.126Z,86.80
2017-10-03T20:50:43.677Z,87.00
2017-10-03T20:53:11.170Z,87.00
2017-10-03T20:55:38.727Z,87.10
2017-10-03T20:58:06.232Z,87.20
2017-10-03T21:00:33.788Z,87.50
2017-10-03T21:03:01.313Z,87.70
2017-10-03T21:05:29.630Z,87.70
2017-10-03T21:07:57.162Z,87.70
2017-10-03T21:10:25.626Z,87.70
2017-10-03T21:12:53.126Z,87.70
2017-10-03T21:15:20.630Z,87.80
2017-10-03T21:17:48.938Z,88.20
2017-10-03T21:20:16.437Z,88.10
2017-10-03T21:22:43.988Z,88.00
2017-10-03T21:25:11.484Z,88.10
2017-10-03T21:27:39.021Z,87.70
2017-10-03T21:30:06.541Z,87.30
2017-10-03T21:32:34.869Z,86.70
2017-10-03T21:35:02.425Z,86.70
2017-10-03T21:37:30.615Z,86.70
2017-10-03T21:39:58.126Z,86.70
2017-10-03T21:45:32.447Z,86.10
2017-10-03T21:48:00.434Z,86.20
2017-10-03T21:50:27.952Z,86.30
2017-10-03T21:52:56.075Z,86.00
2017-10-03T21:55:24.393Z,84.90
2017-10-03T21:57:52.023Z,85.60
2017-10-03T22:00:19.586Z,83.60
2017-10-03T22:02:47.122Z,83.70
2017-10-03T22:05:14.666Z,83.40
2017-10-03T22:07:42.170Z,83.30
2017-10-03T22:10:09.708Z,83.30
2017-10-03T22:12:37.211Z,84.60
2017-10-03T22:15:04.973Z,84.80
2017-10-03T22:17:32.955Z,84.70
2017-10-03T22:20:00.594Z,84.90
2017-10-03T22:22:28.876Z,85.00
2017-10-03T22:24:56.787Z,85.10
2017-10-03T22:27:24.291Z,84.90
2017-10-03T22:29:51.802Z,84.80
2017-10-03T22:32:19.351Z,84.70
2017-10-03T22:34:46.859Z,85.20
2017-10-03T22:37:14.403Z,84.60
2017-10-03T22:39:41.908Z,84.70
2017-10-03T22:42:10.368Z,84.80
2017-10-03T22:44:37.866Z,84.70
2017-10-03T22:47:06.132Z,84.70
2017-10-03T22:49:33.671Z,84.60
2017-10-03T22:54:57.870Z,84.70
2017-10-03T22:57:25.442Z,85.20
2017-10-03T22:59:52.930Z,85.50
2017-10-03T23:02:20.511Z,85.70
2017-10-03T23:04:48.058Z,86.00
2017-10-03T23:07:15.555Z,86.30
2017-10-03T23:09:43.092Z,86.60
2017-10-03T23:12:11.362Z,87.30
2017-10-03T23:14:39.630Z,86.70
2017-10-03T23:17:07.122Z,88.10
2017-10-03T23:19:34.679Z,87.80
2017-10-03T23:22:02.174Z,87.90
2017-10-03T23:24:29.782Z,87.90
2017-10-03T23:26:57.574Z,88.10
2017-10-03T23:29:25.079Z,88.20
2017-10-03T23:31:52.616Z,88.50
2017-10-03T23:34:20.418Z,88.70
2017-10-03T23:36:48.754Z,88.70
2017-10-03T23:39:16.258Z,88.70
2017-10-03T23:41:43.789Z,88.30
2017-10-03T23:44:11.291Z,88.10
2017-10-03T23:46:38.842Z,88.00
2017-10-03T23:49:07.111Z,87.90
2017-10-03T23:51:34.621Z,87.90
2017-10-03T23:54:02.527Z,87.50
2017-10-03T23:56:30.038Z,87.40
2017-10-03T23:58:58.370Z,87.00
